createdAt,value
2019-03-21T00:00:31.360Z,4.19
2019-03-21T00:02:57.348Z,4.19
2019-03-21T00:05:24.323Z,4.19
2019-03-21T00:07:50.179Z,4.18
2019-03-21T00:10:17.932Z,4.19
2019-03-21T00:12:43.789Z,4.20
2019-03-21T00:15:11.583Z,4.18
2019-03-21T00:17:41.594Z,4.17
2019-03-21T00:20:08.948Z,4.16
2019-03-21T00:22:34.820Z,4.15
2019-03-21T00:25:02.587Z,4.12
2019-03-21T00:27:28.440Z,4.11
2019-03-21T00:29:54.505Z,4.10
2019-03-21T00:32:20.464Z,4.09
2019-03-21T00:34:46.429Z,4.06
2019-03-21T00:37:12.305Z,4.05
2019-03-21T00:39:38.414Z,4.05
2019-03-21T00:42:04.259Z,4.03
2019-03-21T00:44:30.135Z,4.04
2019-03-21T00:46:56.191Z,4.01
2019-03-21T00:49:22.221Z,4.02
2019-03-21T00:51:48.080Z,4.02
2019-03-21T00:54:13.976Z,4.02
2019-03-21T00:56:39.836Z,4.01
2019-03-21T00:59:05.813Z,4.03
2019-03-21T01:01:31.761Z,4.03
2019-03-21T01:03:57.616Z,4.02
2019-03-21T01:06:23.512Z,4.04
2019-03-21T01:08:49.492Z,4.04
2019-03-21T01:11:15.435Z,4.04
2019-03-21T01:13:41.348Z,4.02
2019-03-21T01:16:07.315Z,4.02
2019-03-21T01:18:34.795Z,4.02
2019-03-21T01:21:00.665Z,4.04
2019-03-21T01:23:26.511Z,4.05
2019-03-21T01:25:54.186Z,4.05
2019-03-21T01:28:20.188Z,4.04
2019-03-21T01:30:46.164Z,4.04
2019-03-21T01:33:12.020Z,4.05
2019-03-21T01:35:38.335Z,4.06
2019-03-21T01:38:04.301Z,4.05
2019-03-21T01:40:34.781Z,4.06
2019-03-21T01:43:00.632Z,4.06
2019-03-21T01:45:26.497Z,4.06
2019-03-21T01:47:52.993Z,4.06
2019-03-21T01:50:20.343Z,4.06
2019-03-21T01:52:46.308Z,4.07
2019-03-21T01:55:12.279Z,4.08
2019-03-21T01:57:38.131Z,4.08
2019-03-21T02:00:05.910Z,4.11
2019-03-21T02:02:31.776Z,4.12
2019-03-21T02:04:57.664Z,4.14
2019-03-21T02:07:23.635Z,4.14
2019-03-21T02:09:49.536Z,4.16
2019-03-21T02:12:15.388Z,4.16
2019-03-21T02:14:51.588Z,4.17
2019-03-21T02:17:09.064Z,4.18
2019-03-21T02:19:35.023Z,4.18
2019-03-21T02:22:00.899Z,4.19
2019-03-21T02:24:26.770Z,4.18
2019-03-21T02:26:52.619Z,4.18
2019-03-21T02:29:18.476Z,4.20
2019-03-21T02:31:44.382Z,4.20
2019-03-21T02:34:10.232Z,4.21
2019-03-21T02:36:36.077Z,4.22
2019-03-21T02:39:02.664Z,4.23
2019-03-21T02:41:28.519Z,4.22
2019-03-21T02:43:54.483Z,4.19
2019-03-21T02:46:20.438Z,4.17
2019-03-21T02:48:46.278Z,4.17
2019-03-21T02:51:12.309Z,4.18
2019-03-21T02:53:38.181Z,4.20
2019-03-21T02:56:05.938Z,4.21
2019-03-21T02:58:31.778Z,4.21
2019-03-21T03:00:57.642Z,4.21
2019-03-21T03:03:23.524Z,4.20
2019-03-21T03:05:49.489Z,4.19
2019-03-21T03:08:15.482Z,4.17
2019-03-21T03:10:54.197Z,4.13
2019-03-21T03:13:20.212Z,4.09
2019-03-21T03:15:46.048Z,4.02
2019-03-21T03:18:13.833Z,4.00
2019-03-21T03:20:39.783Z,3.95
2019-03-21T03:23:05.645Z,3.91
2019-03-21T03:25:31.496Z,3.90
2019-03-21T03:28:01.855Z,3.90
2019-03-21T03:30:27.723Z,3.91
2019-03-21T03:32:53.546Z,3.90
2019-03-21T03:35:19.521Z,3.87
2019-03-21T03:37:45.368Z,3.88
2019-03-21T03:40:12.779Z,3.86
2019-03-21T03:42:38.625Z,3.80
2019-03-21T03:45:12.556Z,3.77
2019-03-21T03:47:38.533Z,3.73
2019-03-21T03:50:06.298Z,3.72
2019-03-21T03:52:32.540Z,3.74
2019-03-21T03:54:58.401Z,3.74
2019-03-21T03:57:24.373Z,3.74
2019-03-21T03:59:50.347Z,3.74
2019-03-21T04:02:16.282Z,3.76
2019-03-21T04:04:42.181Z,3.78
2019-03-21T04:07:08.023Z,3.78
2019-03-21T04:09:33.894Z,3.76
2019-03-21T04:11:59.877Z,3.77
2019-03-21T04:14:27.707Z,3.76
2019-03-21T04:16:53.670Z,3.75
2019-03-21T04:19:19.677Z,3.73
2019-03-21T04:21:45.614Z,3.71
2019-03-21T04:24:11.462Z,3.71
2019-03-21T04:26:37.463Z,3.66
2019-03-21T04:29:03.438Z,3.64
2019-03-21T04:31:29.390Z,3.63
2019-03-21T04:33:56.871Z,3.62
2019-03-21T04:36:22.804Z,3.64
2019-03-21T04:38:48.791Z,3.62
2019-03-21T04:41:14.648Z,3.62
2019-03-21T04:43:40.508Z,3.61
2019-03-21T04:46:06.380Z,3.58
2019-03-21T04:48:32.403Z,3.55
2019-03-21T04:50:58.264Z,3.54
2019-03-21T04:53:24.216Z,3.53
2019-03-21T04:55:50.073Z,3.51
2019-03-21T04:58:15.921Z,3.50
2019-03-21T05:00:43.205Z,3.48
2019-03-21T05:03:12.994Z,3.48
2019-03-21T05:05:39.042Z,3.49
2019-03-21T05:08:05.015Z,3.52
2019-03-21T05:10:30.894Z,3.53
2019-03-21T05:12:56.755Z,3.56
2019-03-21T05:15:24.098Z,3.57
2019-03-21T05:17:51.397Z,3.55
2019-03-21T05:20:21.352Z,3.51
2019-03-21T05:22:47.211Z,3.47
2019-03-21T05:25:13.090Z,3.46
2019-03-21T05:27:38.935Z,3.46
2019-03-21T05:30:06.719Z,3.46
2019-03-21T05:32:32.601Z,3.47
2019-03-21T05:34:58.459Z,3.46
2019-03-21T05:37:24.287Z,3.44
2019-03-21T05:39:50.364Z,3.42
2019-03-21T05:42:16.332Z,3.39
2019-03-21T05:44:42.268Z,3.34
2019-03-21T05:47:08.168Z,3.32
2019-03-21T05:49:34.014Z,3.31
2019-03-21T05:51:59.882Z,3.30
2019-03-21T05:54:25.957Z,3.28
2019-03-21T05:56:51.839Z,3.27
2019-03-21T05:59:17.694Z,3.26
2019-03-21T06:01:43.592Z,3.21
2019-03-21T06:04:09.456Z,3.19
2019-03-21T06:06:39.989Z,3.19
2019-03-21T06:09:07.677Z,3.18
2019-03-21T06:11:33.635Z,3.21
2019-03-21T06:13:59.502Z,3.22
2019-03-21T06:16:25.384Z,3.25
2019-03-21T06:18:53.122Z,3.28
2019-03-21T06:21:20.893Z,3.32
2019-03-21T06:23:57.646Z,3.35
2019-03-21T06:26:25.424Z,3.39
2019-03-21T06:28:51.299Z,3.39
2019-03-21T06:31:17.200Z,3.42
2019-03-21T06:33:43.036Z,3.42
2019-03-21T06:36:08.894Z,3.44
2019-03-21T06:38:34.793Z,3.48
2019-03-21T06:41:00.665Z,3.53
2019-03-21T06:43:26.527Z,3.55
2019-03-21T06:45:52.443Z,3.59
2019-03-21T06:48:18.327Z,3.62
2019-03-21T06:50:44.311Z,3.66
2019-03-21T06:53:10.197Z,3.70
2019-03-21T06:55:36.630Z,3.71
2019-03-21T06:58:03.413Z,3.74
2019-03-21T07:00:29.399Z,3.76
2019-03-21T07:02:55.252Z,3.80
2019-03-21T07:05:21.189Z,3.86
2019-03-21T07:07:47.175Z,3.91
2019-03-21T07:10:13.132Z,3.95
2019-03-21T07:12:39.100Z,4.02
2019-03-21T07:15:05.995Z,4.06
2019-03-21T07:17:31.854Z,4.07
2019-03-21T07:19:57.708Z,4.11
2019-03-21T07:22:23.575Z,4.12
2019-03-21T07:24:49.419Z,4.16
2019-03-21T07:27:15.569Z,4.18
2019-03-21T07:29:41.439Z,4.19
2019-03-21T07:32:07.430Z,4.22
2019-03-21T07:34:33.287Z,4.24
2019-03-21T07:36:59.227Z,4.25
2019-03-21T07:39:25.116Z,4.28
2019-03-21T07:41:50.961Z,4.31
2019-03-21T07:44:16.818Z,4.33
2019-03-21T07:46:42.735Z,4.35
2019-03-21T07:49:08.617Z,4.38
2019-03-21T07:51:34.688Z,4.38
2019-03-21T07:54:00.640Z,4.39
2019-03-21T07:56:26.804Z,4.42
2019-03-21T07:58:52.687Z,4.45
2019-03-21T08:01:18.630Z,4.48
2019-03-21T08:03:44.506Z,4.53
2019-03-21T08:06:10.499Z,4.58
2019-03-21T08:08:36.353Z,4.61
2019-03-21T08:11:02.323Z,4.67
2019-03-21T08:13:28.288Z,4.72
2019-03-21T08:15:56.081Z,4.77
2019-03-21T08:18:21.808Z,4.83
2019-03-21T08:20:56.171Z,4.87
2019-03-21T08:23:18.901Z,4.94
2019-03-21T08:25:44.840Z,5.00
2019-03-21T08:28:10.719Z,5.08
2019-03-21T08:30:38.490Z,5.17
2019-03-21T08:33:04.350Z,5.23
2019-03-21T08:35:30.328Z,5.30
2019-03-21T08:37:56.267Z,5.35
2019-03-21T08:40:22.452Z,5.43
2019-03-21T08:42:48.348Z,5.49
2019-03-21T08:45:14.350Z,5.56
2019-03-21T08:47:40.431Z,5.61
2019-03-21T08:50:07.716Z,5.67
2019-03-21T08:52:33.576Z,5.73
2019-03-21T08:54:59.539Z,5.79
2019-03-21T08:57:25.626Z,5.84
2019-03-21T08:59:51.768Z,5.88
2019-03-21T09:02:17.637Z,5.91
2019-03-21T09:04:43.640Z,5.91
2019-03-21T09:07:09.589Z,5.91
2019-03-21T09:09:35.422Z,5.91
2019-03-21T09:12:01.293Z,5.94
2019-03-21T09:14:27.158Z,5.99
2019-03-21T09:16:53.126Z,6.00
2019-03-21T09:19:19.089Z,6.00
2019-03-21T09:21:44.954Z,6.02
2019-03-21T09:24:10.791Z,6.05
2019-03-21T09:26:38.305Z,6.06
2019-03-21T09:29:04.181Z,6.09
2019-03-21T09:31:30.130Z,6.12
2019-03-21T09:33:55.933Z,6.14
2019-03-21T09:36:21.798Z,6.14
2019-03-21T09:38:48.733Z,6.13
2019-03-21T09:41:14.586Z,6.12
2019-03-21T09:43:40.471Z,6.10
2019-03-21T09:46:06.467Z,6.10
2019-03-21T09:48:32.364Z,6.11
2019-03-21T09:50:58.220Z,6.09
2019-03-21T09:53:24.121Z,6.08
2019-03-21T09:55:49.976Z,6.06
2019-03-21T09:58:16.089Z,6.01
2019-03-21T10:00:42.108Z,5.97
2019-03-21T10:03:08.042Z,5.93
2019-03-21T10:05:33.908Z,5.90
2019-03-21T10:07:59.982Z,5.86
2019-03-21T10:10:27.152Z,5.81
2019-03-21T10:12:55.506Z,5.80
2019-03-21T10:15:21.034Z,5.81
2019-03-21T10:17:46.887Z,5.83
2019-03-21T10:20:12.760Z,5.81
2019-03-21T10:22:38.754Z,5.78
2019-03-21T10:25:04.817Z,5.76
2019-03-21T10:27:30.674Z,5.76
2019-03-21T10:29:56.561Z,5.73
2019-03-21T10:32:22.438Z,5.69
2019-03-21T10:34:48.325Z,5.69
2019-03-21T10:37:14.227Z,5.72
2019-03-21T10:39:41.958Z,5.69
2019-03-21T10:42:08.080Z,5.65
2019-03-21T10:44:33.993Z,5.63
2019-03-21T10:46:59.907Z,5.66
2019-03-21T10:49:25.915Z,5.64
2019-03-21T10:51:55.157Z,5.62
2019-03-21T10:54:19.450Z,5.61
2019-03-21T10:56:45.331Z,5.70
2019-03-21T10:59:11.351Z,5.82
2019-03-21T11:01:37.466Z,5.91
2019-03-21T11:04:03.393Z,6.05
2019-03-21T11:06:29.319Z,6.20
2019-03-21T11:08:55.176Z,6.34
2019-03-21T11:11:21.059Z,6.49
2019-03-21T11:13:47.035Z,6.62
2019-03-21T11:16:13.066Z,6.76
2019-03-21T11:18:39.103Z,6.89
2019-03-21T11:21:05.064Z,7.01
2019-03-21T11:23:30.924Z,7.12
2019-03-21T11:25:56.903Z,7.24
2019-03-21T11:28:22.884Z,7.35
2019-03-21T11:30:48.854Z,7.46
2019-03-21T11:33:14.915Z,7.56
2019-03-21T11:35:40.901Z,7.70
2019-03-21T11:38:06.849Z,7.80
2019-03-21T11:40:32.905Z,7.86
2019-03-21T11:42:58.963Z,7.96
2019-03-21T11:45:25.070Z,8.11
2019-03-21T11:47:51.336Z,8.28
2019-03-21T11:50:17.373Z,8.48
2019-03-21T11:52:43.343Z,8.65
2019-03-21T11:55:09.396Z,8.81
2019-03-21T11:57:35.232Z,8.95
2019-03-21T12:00:01.522Z,9.13
2019-03-21T12:02:27.667Z,9.32
2019-03-21T12:04:53.553Z,9.50
2019-03-21T12:07:19.525Z,9.65
2019-03-21T12:09:45.373Z,9.80
2019-03-21T12:12:12.660Z,9.98
2019-03-21T12:14:40.029Z,10.13
2019-03-21T12:17:05.895Z,10.28
2019-03-21T12:19:31.768Z,10.40
2019-03-21T12:21:57.691Z,10.53
2019-03-21T12:24:23.548Z,10.63
2019-03-21T12:26:49.429Z,10.73
2019-03-21T12:29:15.270Z,10.86
2019-03-21T12:31:41.123Z,10.98
2019-03-21T12:34:07.809Z,11.10
2019-03-21T12:36:33.663Z,11.19
2019-03-21T12:38:59.686Z,11.29
2019-03-21T12:41:25.668Z,11.43
2019-03-21T12:43:51.537Z,11.41
2019-03-21T12:46:17.380Z,11.68
2019-03-21T12:48:43.280Z,11.80
2019-03-21T12:51:09.144Z,11.94
2019-03-21T12:53:34.995Z,12.08
2019-03-21T12:56:00.993Z,12.15
2019-03-21T12:58:26.894Z,12.24
2019-03-21T13:00:53.118Z,12.36
2019-03-21T13:03:18.959Z,12.44
2019-03-21T13:05:44.834Z,12.29
2019-03-21T13:08:10.929Z,12.61
2019-03-21T13:10:36.964Z,12.66
2019-03-21T13:13:03.051Z,12.73
2019-03-21T13:15:30.243Z,12.75
2019-03-21T13:17:56.258Z,12.74
2019-03-21T13:20:22.123Z,12.77
2019-03-21T13:22:52.937Z,12.83
2019-03-21T13:25:15.649Z,12.84
2019-03-21T13:27:41.528Z,12.82
2019-03-21T13:30:08.711Z,12.72
2019-03-21T13:32:34.576Z,12.56
2019-03-21T13:35:00.465Z,12.35
2019-03-21T13:37:26.369Z,12.18
2019-03-21T13:39:52.204Z,12.01
2019-03-21T13:42:18.100Z,11.81
2019-03-21T13:44:44.054Z,11.62
2019-03-21T13:47:09.936Z,11.47
2019-03-21T13:49:35.907Z,11.38
2019-03-21T13:52:01.812Z,11.33
2019-03-21T13:54:27.965Z,11.35
2019-03-21T13:56:53.906Z,11.37
2019-03-21T13:59:19.749Z,11.38
2019-03-21T14:01:45.759Z,11.36
2019-03-21T14:04:11.716Z,11.35
2019-03-21T14:06:37.580Z,11.34
2019-03-21T14:09:04.769Z,11.32
2019-03-21T14:11:30.629Z,11.28
2019-03-21T14:13:56.503Z,11.24
2019-03-21T14:16:22.351Z,11.21
2019-03-21T14:18:48.238Z,11.17
2019-03-21T14:21:14.307Z,11.10
2019-03-21T14:23:43.556Z,11.05
2019-03-21T14:26:07.828Z,11.01
2019-03-21T14:28:33.678Z,10.98
2019-03-21T14:30:59.592Z,10.96
2019-03-21T14:33:25.464Z,10.91
2019-03-21T14:35:51.382Z,10.82
2019-03-21T14:38:25.834Z,10.74
2019-03-21T14:40:44.945Z,10.67
2019-03-21T14:43:10.816Z,10.61
2019-03-21T14:45:36.788Z,10.53
2019-03-21T14:48:02.740Z,10.41
2019-03-21T14:50:28.602Z,10.33
2019-03-21T14:52:54.600Z,10.28
2019-03-21T14:55:20.572Z,10.24
2019-03-21T14:57:46.431Z,10.18
2019-03-21T15:00:14.313Z,10.12
2019-03-21T15:02:40.389Z,10.07
2019-03-21T15:05:06.922Z,10.01
2019-03-21T15:07:32.795Z,9.91
2019-03-21T15:09:58.645Z,9.81
2019-03-21T15:12:24.641Z,9.75
2019-03-21T15:14:50.512Z,9.68
2019-03-21T15:17:16.391Z,9.62
2019-03-21T15:19:42.376Z,9.53
2019-03-21T15:22:09.478Z,9.43
2019-03-21T15:24:35.316Z,9.37
2019-03-21T15:27:01.192Z,9.34
2019-03-21T15:29:27.034Z,9.30
2019-03-21T15:31:52.901Z,9.23
2019-03-21T15:34:18.761Z,9.17
2019-03-21T15:36:44.687Z,9.12
2019-03-21T15:39:10.490Z,9.04
2019-03-21T15:41:36.658Z,9.00
2019-03-21T15:44:02.670Z,8.95
2019-03-21T15:46:28.548Z,8.88
2019-03-21T15:48:54.500Z,8.82
2019-03-21T15:51:20.416Z,8.76
2019-03-21T15:53:54.558Z,8.71
2019-03-21T15:56:13.959Z,8.68
2019-03-21T15:58:39.936Z,8.61
2019-03-21T16:01:05.753Z,8.58
2019-03-21T16:03:31.730Z,8.56
2019-03-21T16:05:57.738Z,8.54
2019-03-21T16:08:23.602Z,8.51
2019-03-21T16:10:49.459Z,8.47
2019-03-21T16:13:15.420Z,8.40
2019-03-21T16:15:41.377Z,8.31
2019-03-21T16:18:07.340Z,8.23
2019-03-21T16:20:33.338Z,8.19
2019-03-21T16:22:59.187Z,8.16
2019-03-21T16:25:25.146Z,8.13
2019-03-21T16:27:51.005Z,8.09
2019-03-21T16:30:16.841Z,8.06
2019-03-21T16:32:42.821Z,8.02
2019-03-21T16:35:08.997Z,7.93
2019-03-21T16:37:35.365Z,7.87
2019-03-21T16:40:04.472Z,7.80
2019-03-21T16:42:30.339Z,7.74
2019-03-21T16:44:56.311Z,7.67
2019-03-21T16:47:22.190Z,7.61
2019-03-21T16:49:48.166Z,7.56
2019-03-21T16:52:14.947Z,7.50
2019-03-21T16:54:40.946Z,7.45
2019-03-21T16:57:06.812Z,7.39
2019-03-21T16:59:32.709Z,7.32
2019-03-21T17:01:58.566Z,7.26
2019-03-21T17:04:24.539Z,7.22
2019-03-21T17:06:52.998Z,7.18
2019-03-21T17:09:18.838Z,7.12
2019-03-21T17:11:44.938Z,7.06
2019-03-21T17:14:10.930Z,7.02
2019-03-21T17:16:36.903Z,6.96
2019-03-21T17:19:02.829Z,6.96
2019-03-21T17:21:28.687Z,6.93
2019-03-21T17:23:54.551Z,6.91
2019-03-21T17:26:20.414Z,6.88
2019-03-21T17:28:46.272Z,6.81
2019-03-21T17:31:12.114Z,6.74
2019-03-21T17:33:39.315Z,6.70
2019-03-21T17:36:05.292Z,6.65
2019-03-21T17:38:31.127Z,6.60
2019-03-21T17:40:57.009Z,6.55
2019-03-21T17:43:22.868Z,6.49
2019-03-21T17:45:48.840Z,6.45
2019-03-21T17:48:14.726Z,6.41
2019-03-21T17:50:40.579Z,6.35
2019-03-21T17:53:06.470Z,6.29
2019-03-21T17:55:32.342Z,6.27
2019-03-21T17:57:58.251Z,6.23
2019-03-21T18:00:35.395Z,6.20
2019-03-21T18:03:01.513Z,6.15
2019-03-21T18:05:27.641Z,6.12
2019-03-21T18:07:53.546Z,6.08
2019-03-21T18:10:27.432Z,6.03
2019-03-21T18:12:53.307Z,5.99
2019-03-21T18:15:19.201Z,5.95
2019-03-21T18:17:47.923Z,5.92
2019-03-21T18:20:13.882Z,5.87
2019-03-21T18:22:39.743Z,5.82
2019-03-21T18:25:05.693Z,5.79
2019-03-21T18:27:31.564Z,5.76
2019-03-21T18:29:57.428Z,5.71
2019-03-21T18:32:23.388Z,5.69
2019-03-21T18:34:49.249Z,5.64
2019-03-21T18:37:15.231Z,5.59
2019-03-21T18:39:41.101Z,5.56
2019-03-21T18:42:07.146Z,5.53
2019-03-21T18:44:33.056Z,5.50
2019-03-21T18:46:58.927Z,5.47
2019-03-21T18:49:24.785Z,5.42
2019-03-21T18:51:50.739Z,5.14
2019-03-21T18:54:16.597Z,5.33
2019-03-21T18:56:42.500Z,5.30
2019-03-21T18:59:08.445Z,5.28
2019-03-21T19:01:34.336Z,5.25
2019-03-21T19:04:00.206Z,5.23
2019-03-21T19:06:26.604Z,5.21
2019-03-21T19:08:52.453Z,5.20
2019-03-21T19:11:18.412Z,5.16
2019-03-21T19:13:44.416Z,5.15
2019-03-21T19:16:10.284Z,5.14
2019-03-21T19:18:36.144Z,5.11
2019-03-21T19:21:02.123Z,5.07
2019-03-21T19:23:27.992Z,5.03
2019-03-21T19:25:53.852Z,5.00
2019-03-21T19:28:19.840Z,4.97
2019-03-21T19:30:45.804Z,4.92
2019-03-21T19:33:11.664Z,4.89
2019-03-21T19:35:37.511Z,4.86
2019-03-21T19:38:03.381Z,4.79
2019-03-21T19:40:29.248Z,4.76
2019-03-21T19:42:55.250Z,4.73
2019-03-21T19:45:21.092Z,4.71
2019-03-21T19:47:46.944Z,4.70
2019-03-21T19:50:14.710Z,4.68
2019-03-21T19:52:40.678Z,4.67
2019-03-21T19:55:07.163Z,4.64
2019-03-21T19:57:33.228Z,4.60
2019-03-21T19:59:59.107Z,4.58
2019-03-21T20:02:26.122Z,4.57
2019-03-21T20:04:52.036Z,4.57
2019-03-21T20:07:17.992Z,4.56
2019-03-21T20:09:43.840Z,4.54
2019-03-21T20:12:09.882Z,4.51
2019-03-21T20:14:35.787Z,4.47
2019-03-21T20:17:01.731Z,4.46
2019-03-21T20:19:27.699Z,4.42
2019-03-21T20:21:53.638Z,4.40
2019-03-21T20:24:19.655Z,4.38
2019-03-21T20:26:45.511Z,4.37
2019-03-21T20:29:11.390Z,4.38
2019-03-21T20:31:37.264Z,4.37
2019-03-21T20:34:03.202Z,4.37
2019-03-21T20:36:29.083Z,4.37
2019-03-21T20:38:54.937Z,4.34
2019-03-21T20:41:20.786Z,4.31
2019-03-21T20:43:46.754Z,4.28
2019-03-21T20:46:12.651Z,4.26
2019-03-21T20:48:38.401Z,4.22
2019-03-21T20:51:04.411Z,4.19
2019-03-21T20:53:30.397Z,4.15
2019-03-21T20:55:56.370Z,4.11
2019-03-21T20:58:22.218Z,4.05
2019-03-21T21:00:48.105Z,4.03
2019-03-21T21:03:16.469Z,3.99
2019-03-21T21:05:42.463Z,3.99
2019-03-21T21:08:08.453Z,3.98
2019-03-21T21:10:34.294Z,3.95
2019-03-21T21:13:00.163Z,3.91
2019-03-21T21:15:26.059Z,3.89
2019-03-21T21:17:52.061Z,3.90
2019-03-21T21:20:18.049Z,3.90
2019-03-21T21:22:43.986Z,3.89
2019-03-21T21:25:09.940Z,3.87
2019-03-21T21:27:35.910Z,3.83
2019-03-21T21:30:02.620Z,3.81
2019-03-21T21:32:28.462Z,3.79
2019-03-21T21:34:54.798Z,3.77
2019-03-21T21:37:20.713Z,3.75
2019-03-21T21:39:46.695Z,3.75
2019-03-21T21:42:12.550Z,3.74
2019-03-21T21:44:38.438Z,3.73
2019-03-21T21:47:04.406Z,3.69
2019-03-21T21:49:30.282Z,3.65
2019-03-21T21:51:56.266Z,3.61
2019-03-21T21:54:22.130Z,3.59
2019-03-21T21:56:48.016Z,3.61
2019-03-21T21:59:13.889Z,3.60
2019-03-21T22:01:39.747Z,3.58
2019-03-21T22:04:05.621Z,3.56
2019-03-21T22:06:31.539Z,3.54
2019-03-21T22:08:57.652Z,3.51
2019-03-21T22:11:23.535Z,3.50
2019-03-21T22:13:49.474Z,3.50
2019-03-21T22:16:15.336Z,3.51
2019-03-21T22:18:41.299Z,3.51
2019-03-21T22:21:07.262Z,3.51
2019-03-21T22:23:33.230Z,3.50
2019-03-21T22:25:59.101Z,3.48
2019-03-21T22:28:24.976Z,3.45
2019-03-21T22:30:50.944Z,3.43
2019-03-21T22:33:16.803Z,3.40
2019-03-21T22:35:42.642Z,3.40
2019-03-21T22:38:08.489Z,3.40
2019-03-21T22:40:34.357Z,3.38
2019-03-21T22:43:00.493Z,3.39
2019-03-21T22:45:26.365Z,3.40
2019-03-21T22:47:52.228Z,3.39
2019-03-21T22:50:18.204Z,3.37
2019-03-21T22:52:44.403Z,3.36
2019-03-21T22:55:10.358Z,3.34
2019-03-21T22:57:36.594Z,3.31
2019-03-21T23:00:04.373Z,3.29
2019-03-21T23:02:30.439Z,3.29
2019-03-21T23:04:56.418Z,3.31
2019-03-21T23:07:22.297Z,3.31
2019-03-21T23:09:48.229Z,3.30
2019-03-21T23:12:14.101Z,3.29
2019-03-21T23:14:39.957Z,3.31
2019-03-21T23:17:05.850Z,3.28
2019-03-21T23:19:32.646Z,3.28
2019-03-21T23:21:58.489Z,3.25
2019-03-21T23:24:24.744Z,3.21
2019-03-21T23:26:53.231Z,3.19
2019-03-21T23:29:18.372Z,3.16
2019-03-21T23:31:44.222Z,3.14
2019-03-21T23:34:10.071Z,3.10
2019-03-21T23:36:35.919Z,3.06
2019-03-21T23:39:01.801Z,3.00
2019-03-21T23:41:27.630Z,2.95
2019-03-21T23:43:53.509Z,2.92
2019-03-21T23:46:19.654Z,2.88
2019-03-21T23:48:45.536Z,2.85
2019-03-21T23:51:11.404Z,2.83
2019-03-21T23:53:37.245Z,2.81
2019-03-21T23:56:03.186Z,2.79
2019-03-21T23:58:29.156Z,2.80
